Ana Sayfa
METAR-TAF:

METAR-TAF

Havaalanları :

Orange County Airport

Orange, Virginia, Amerika Birleşik Devletleri

Enlem: 38-14-50N, Boylam: 078-02-44W, yükseklik: 142 m

Güncel hava durumu gözlemi

Rapor saat 23:15 UTC de 21 dakika önce yapıldı.
Rüzgar batıdan 10 kt ve 16 kt'a kadar ani rüzgarlar
Sıcaklık 3°C
Nem 35%
Basınç 1014 hPa
Görüş mesafesi: 16.1 km
Açık gökyüzü

METAR: KOMH 272315Z AUTO 27010G16KT 10SM CLR 03/M11 A2994 RMK AO2

Saat: 18:36 (23:36 UTC)


TAF: eksik

4.000'den fazla havaalanı için hava durumu gözlemleri ve tahminleri (METAR ve TAF raporları).

Kullanılabilir istasyonlar harita üzerinde sarı ve kırmızı noktalarla gösterilir.

İstasyonun adını görmek için fareyi noktanın üzerinde gezdirin.

Sonrasında hava gözlem ve tahminlerini görmek için tıklayın.

Haritayı değiştirmek için: yaklaştırmak için siyah artı işaretli yeşil düğmeye ve uzaklaştırmak için de eksi işaretli düğmeye hızla tıklayın; bitişik haritalar için yeşil okları kullanın.


METAR-TAF: